sensor_id;sensor_type;location;lat;lon;timestamp;P1;durP1;ratioP1;P2;durP2;ratioP2
74900;SDS011;63461;51.416;6.758;2024-01-06T00:02:16;18.87;;;9.23;;
74900;SDS011;63461;51.416;6.758;2024-01-06T00:04:42;15.47;;;8.77;;
74900;SDS011;63461;51.416;6.758;2024-01-06T00:07:08;17.67;;;9.87;;
74900;SDS011;63461;51.416;6.758;2024-01-06T00:09:34;14.93;;;8.33;;
74900;SDS011;63461;51.416;6.758;2024-01-06T00:12:00;14.73;;;8.83;;
74900;SDS011;63461;51.416;6.758;2024-01-06T00:14:27;16.43;;;8.63;;
74900;SDS011;63461;51.416;6.758;2024-01-06T00:16:53;15.93;;;8.63;;
74900;SDS011;63461;51.416;6.758;2024-01-06T00:19:18;15.00;;;8.50;;
74900;SDS011;63461;51.416;6.758;2024-01-06T00:21:44;19.37;;;9.33;;
74900;SDS011;63461;51.416;6.758;2024-01-06T00:24:10;18.40;;;9.80;;
74900;SDS011;63461;51.416;6.758;2024-01-06T00:26:36;14.93;;;8.70;;
74900;SDS011;63461;51.416;6.758;2024-01-06T00:29:02;17.93;;;9.23;;
74900;SDS011;63461;51.416;6.758;2024-01-06T00:31:28;15.93;;;9.03;;
74900;SDS011;63461;51.416;6.758;2024-01-06T00:33:53;21.40;;;10.17;;
74900;SDS011;63461;51.416;6.758;2024-01-06T00:36:19;20.23;;;10.37;;
74900;SDS011;63461;51.416;6.758;2024-01-06T00:38:45;17.30;;;9.77;;
74900;SDS011;63461;51.416;6.758;2024-01-06T00:41:11;19.13;;;10.20;;
74900;SDS011;63461;51.416;6.758;2024-01-06T00:43:37;19.77;;;9.93;;
74900;SDS011;63461;51.416;6.758;2024-01-06T00:46:02;20.37;;;10.17;;
74900;SDS011;63461;51.416;6.758;2024-01-06T00:48:28;21.17;;;10.60;;
74900;SDS011;63461;51.416;6.758;2024-01-06T00:50:54;20.97;;;10.50;;
74900;SDS011;63461;51.416;6.758;2024-01-06T00:53:21;19.23;;;10.37;;
74900;SDS011;63461;51.416;6.758;2024-01-06T00:55:47;19.33;;;10.23;;
74900;SDS011;63461;51.416;6.758;2024-01-06T00:58:12;22.23;;;11.90;;
74900;SDS011;63461;51.416;6.758;2024-01-06T01:00:38;25.93;;;11.93;;
74900;SDS011;63461;51.416;6.758;2024-01-06T01:03:05;22.43;;;12.07;;
74900;SDS011;63461;51.416;6.758;2024-01-06T01:05:31;26.53;;;12.50;;
74900;SDS011;63461;51.416;6.758;2024-01-06T01:07:57;24.20;;;12.50;;
74900;SDS011;63461;51.416;6.758;2024-01-06T01:10:22;26.47;;;13.40;;
74900;SDS011;63461;51.416;6.758;2024-01-06T01:12:48;25.83;;;12.77;;
74900;SDS011;63461;51.416;6.758;2024-01-06T01:15:14;26.00;;;13.27;;
74900;SDS011;63461;51.416;6.758;2024-01-06T01:17:40;27.17;;;14.20;;
74900;SDS011;63461;51.416;6.758;2024-01-06T01:20:06;25.53;;;12.17;;
74900;SDS011;63461;51.416;6.758;2024-01-06T01:22:32;29.50;;;14.77;;
74900;SDS011;63461;51.416;6.758;2024-01-06T01:24:58;26.17;;;12.77;;
74900;SDS011;63461;51.416;6.758;2024-01-06T01:27:25;26.93;;;13.80;;
74900;SDS011;63461;51.416;6.758;2024-01-06T01:29:51;26.70;;;13.13;;
74900;SDS011;63461;51.416;6.758;2024-01-06T01:32:18;26.43;;;13.60;;
74900;SDS011;63461;51.416;6.758;2024-01-06T01:34:44;23.73;;;12.03;;
74900;SDS011;63461;51.416;6.758;2024-01-06T01:37:09;27.33;;;13.90;;
74900;SDS011;63461;51.416;6.758;2024-01-06T01:39:35;28.50;;;13.70;;
74900;SDS011;63461;51.416;6.758;2024-01-06T01:42:01;26.23;;;13.50;;
74900;SDS011;63461;51.416;6.758;2024-01-06T01:44:27;23.90;;;13.33;;
74900;SDS011;63461;51.416;6.758;2024-01-06T01:46:53;27.97;;;13.37;;
74900;SDS011;63461;51.416;6.758;2024-01-06T01:49:19;27.40;;;14.47;;
74900;SDS011;63461;51.416;6.758;2024-01-06T01:51:45;24.00;;;12.47;;
74900;SDS011;63461;51.416;6.758;2024-01-06T01:54:12;25.90;;;14.03;;
74900;SDS011;63461;51.416;6.758;2024-01-06T01:56:39;27.00;;;13.47;;
74900;SDS011;63461;51.416;6.758;2024-01-06T01:59:09;29.00;;;13.13;;
74900;SDS011;63461;51.416;6.758;2024-01-06T02:01:36;29.00;;;14.87;;
74900;SDS011;63461;51.416;6.758;2024-01-06T02:04:02;26.67;;;13.80;;
74900;SDS011;63461;51.416;6.758;2024-01-06T02:06:28;27.70;;;13.67;;
74900;SDS011;63461;51.416;6.758;2024-01-06T02:08:54;30.77;;;14.60;;
74900;SDS011;63461;51.416;6.758;2024-01-06T02:11:20;30.93;;;14.40;;
74900;SDS011;63461;51.416;6.758;2024-01-06T02:13:46;29.30;;;14.90;;
74900;SDS011;63461;51.416;6.758;2024-01-06T02:16:12;28.47;;;13.60;;
74900;SDS011;63461;51.416;6.758;2024-01-06T02:18:38;28.63;;;14.30;;
74900;SDS011;63461;51.416;6.758;2024-01-06T02:21:04;31.60;;;14.97;;
74900;SDS011;63461;51.416;6.758;2024-01-06T02:23:33;26.83;;;14.27;;
74900;SDS011;63461;51.416;6.758;2024-01-06T02:26:00;29.37;;;13.93;;
74900;SDS011;63461;51.416;6.758;2024-01-06T02:28:26;34.93;;;15.63;;
74900;SDS011;63461;51.416;6.758;2024-01-06T02:30:51;27.77;;;14.30;;
74900;SDS011;63461;51.416;6.758;2024-01-06T02:33:17;27.50;;;14.23;;
74900;SDS011;63461;51.416;6.758;2024-01-06T02:35:47;28.63;;;14.47;;
74900;SDS011;63461;51.416;6.758;2024-01-06T02:38:13;31.23;;;15.17;;
74900;SDS011;63461;51.416;6.758;2024-01-06T02:40:39;29.77;;;14.50;;
74900;SDS011;63461;51.416;6.758;2024-01-06T02:43:05;33.33;;;14.97;;
74900;SDS011;63461;51.416;6.758;2024-01-06T02:45:30;30.80;;;14.93;;
74900;SDS011;63461;51.416;6.758;2024-01-06T02:47:56;30.10;;;14.57;;
74900;SDS011;63461;51.416;6.758;2024-01-06T02:50:22;31.23;;;14.53;;
74900;SDS011;63461;51.416;6.758;2024-01-06T02:52:48;31.10;;;15.10;;
74900;SDS011;63461;51.416;6.758;2024-01-06T02:55:14;29.10;;;14.43;;
74900;SDS011;63461;51.416;6.758;2024-01-06T02:57:39;36.40;;;19.50;;
74900;SDS011;63461;51.416;6.758;2024-01-06T03:00:06;30.77;;;12.97;;
74900;SDS011;63461;51.416;6.758;2024-01-06T03:02:33;34.03;;;15.10;;
74900;SDS011;63461;51.416;6.758;2024-01-06T03:05:01;26.07;;;11.97;;
74900;SDS011;63461;51.416;6.758;2024-01-06T03:07:27;26.37;;;12.13;;
74900;SDS011;63461;51.416;6.758;2024-01-06T03:09:53;25.67;;;11.93;;
74900;SDS011;63461;51.416;6.758;2024-01-06T03:12:19;29.10;;;12.63;;
74900;SDS011;63461;51.416;6.758;2024-01-06T03:14:45;26.53;;;12.00;;
74900;SDS011;63461;51.416;6.758;2024-01-06T03:17:11;24.80;;;10.73;;
74900;SDS011;63461;51.416;6.758;2024-01-06T03:19:38;24.27;;;10.37;;
74900;SDS011;63461;51.416;6.758;2024-01-06T03:22:04;27.83;;;10.63;;
74900;SDS011;63461;51.416;6.758;2024-01-06T03:24:30;33.03;;;12.33;;
74900;SDS011;63461;51.416;6.758;2024-01-06T03:26:56;52.10;;;14.33;;
74900;SDS011;63461;51.416;6.758;2024-01-06T03:29:22;25.90;;;9.80;;
74900;SDS011;63461;51.416;6.758;2024-01-06T03:31:48;18.97;;;8.40;;
74900;SDS011;63461;51.416;6.758;2024-01-06T03:34:14;18.97;;;8.60;;
74900;SDS011;63461;51.416;6.758;2024-01-06T03:36:40;16.73;;;7.30;;
74900;SDS011;63461;51.416;6.758;2024-01-06T03:39:06;16.13;;;7.50;;
74900;SDS011;63461;51.416;6.758;2024-01-06T03:41:33;15.33;;;7.27;;
74900;SDS011;63461;51.416;6.758;2024-01-06T03:43:59;13.93;;;6.53;;
74900;SDS011;63461;51.416;6.758;2024-01-06T03:46:25;16.63;;;7.77;;
74900;SDS011;63461;51.416;6.758;2024-01-06T03:48:50;14.60;;;6.37;;
74900;SDS011;63461;51.416;6.758;2024-01-06T03:51:16;15.90;;;6.80;;
74900;SDS011;63461;51.416;6.758;2024-01-06T03:53:42;15.03;;;7.10;;
74900;SDS011;63461;51.416;6.758;2024-01-06T03:56:08;14.73;;;6.53;;
74900;SDS011;63461;51.416;6.758;2024-01-06T03:58:34;15.83;;;7.43;;
74900;SDS011;63461;51.416;6.758;2024-01-06T04:01:00;15.47;;;7.43;;
74900;SDS011;63461;51.416;6.758;2024-01-06T04:03:26;17.27;;;7.13;;
74900;SDS011;63461;51.416;6.758;2024-01-06T04:05:52;15.90;;;7.40;;
74900;SDS011;63461;51.416;6.758;2024-01-06T04:08:18;15.20;;;7.37;;
74900;SDS011;63461;51.416;6.758;2024-01-06T04:10:44;15.53;;;7.13;;
74900;SDS011;63461;51.416;6.758;2024-01-06T04:13:10;18.73;;;7.73;;
74900;SDS011;63461;51.416;6.758;2024-01-06T04:15:37;17.07;;;6.87;;
74900;SDS011;63461;51.416;6.758;2024-01-06T04:18:03;14.63;;;6.67;;
74900;SDS011;63461;51.416;6.758;2024-01-06T04:20:30;16.47;;;7.57;;
74900;SDS011;63461;51.416;6.758;2024-01-06T04:22:56;16.80;;;7.70;;
74900;SDS011;63461;51.416;6.758;2024-01-06T04:25:22;19.33;;;8.30;;
74900;SDS011;63461;51.416;6.758;2024-01-06T04:27:48;17.90;;;7.73;;
74900;SDS011;63461;51.416;6.758;2024-01-06T04:30:15;15.43;;;7.27;;
74900;SDS011;63461;51.416;6.758;2024-01-06T04:32:41;17.10;;;7.77;;
74900;SDS011;63461;51.416;6.758;2024-01-06T04:35:07;17.97;;;7.30;;
74900;SDS011;63461;51.416;6.758;2024-01-06T04:37:34;17.77;;;7.47;;
74900;SDS011;63461;51.416;6.758;2024-01-06T04:40:00;13.60;;;6.40;;
74900;SDS011;63461;51.416;6.758;2024-01-06T04:42:25;14.00;;;6.73;;
74900;SDS011;63461;51.416;6.758;2024-01-06T04:44:51;15.93;;;6.43;;
74900;SDS011;63461;51.416;6.758;2024-01-06T04:47:17;17.93;;;7.13;;
74900;SDS011;63461;51.416;6.758;2024-01-06T04:49:43;16.27;;;6.83;;
74900;SDS011;63461;51.416;6.758;2024-01-06T04:52:09;14.90;;;6.47;;
74900;SDS011;63461;51.416;6.758;2024-01-06T04:54:35;16.03;;;6.80;;
74900;SDS011;63461;51.416;6.758;2024-01-06T04:57:01;13.93;;;6.63;;
74900;SDS011;63461;51.416;6.758;2024-01-06T04:59:27;12.77;;;6.20;;
74900;SDS011;63461;51.416;6.758;2024-01-06T05:01:54;13.93;;;5.93;;
74900;SDS011;63461;51.416;6.758;2024-01-06T05:04:20;13.37;;;6.47;;
74900;SDS011;63461;51.416;6.758;2024-01-06T05:06:46;14.60;;;6.57;;
74900;SDS011;63461;51.416;6.758;2024-01-06T05:09:11;14.97;;;7.00;;
74900;SDS011;63461;51.416;6.758;2024-01-06T05:11:37;16.40;;;7.57;;
74900;SDS011;63461;51.416;6.758;2024-01-06T05:14:04;16.60;;;7.03;;
74900;SDS011;63461;51.416;6.758;2024-01-06T05:16:30;20.30;;;8.53;;
74900;SDS011;63461;51.416;6.758;2024-01-06T05:18:58;17.23;;;7.53;;
74900;SDS011;63461;51.416;6.758;2024-01-06T05:21:24;15.90;;;7.43;;
74900;SDS011;63461;51.416;6.758;2024-01-06T05:23:51;18.33;;;8.53;;
74900;SDS011;63461;51.416;6.758;2024-01-06T05:26:16;15.23;;;7.57;;
74900;SDS011;63461;51.416;6.758;2024-01-06T05:28:42;18.93;;;8.17;;
74900;SDS011;63461;51.416;6.758;2024-01-06T05:31:08;15.83;;;7.30;;
74900;SDS011;63461;51.416;6.758;2024-01-06T05:33:34;19.97;;;8.87;;
74900;SDS011;63461;51.416;6.758;2024-01-06T05:36:00;21.50;;;9.10;;
74900;SDS011;63461;51.416;6.758;2024-01-06T05:38:26;19.40;;;8.80;;
74900;SDS011;63461;51.416;6.758;2024-01-06T05:40:51;24.57;;;10.00;;
74900;SDS011;63461;51.416;6.758;2024-01-06T05:43:18;21.80;;;10.00;;
74900;SDS011;63461;51.416;6.758;2024-01-06T05:45:44;21.50;;;9.37;;
74900;SDS011;63461;51.416;6.758;2024-01-06T05:48:10;23.73;;;9.77;;
74900;SDS011;63461;51.416;6.758;2024-01-06T05:50:39;22.53;;;10.27;;
74900;SDS011;63461;51.416;6.758;2024-01-06T05:53:06;23.07;;;10.03;;
74900;SDS011;63461;51.416;6.758;2024-01-06T05:55:32;18.87;;;8.67;;
74900;SDS011;63461;51.416;6.758;2024-01-06T05:57:58;21.10;;;9.00;;
74900;SDS011;63461;51.416;6.758;2024-01-06T06:00:24;21.50;;;9.50;;
74900;SDS011;63461;51.416;6.758;2024-01-06T06:02:49;19.33;;;8.83;;
74900;SDS011;63461;51.416;6.758;2024-01-06T06:05:15;16.33;;;4.93;;
74900;SDS011;63461;51.416;6.758;2024-01-06T06:07:41;22.27;;;9.60;;
74900;SDS011;63461;51.416;6.758;2024-01-06T06:10:08;18.20;;;8.57;;
74900;SDS011;63461;51.416;6.758;2024-01-06T06:12:35;18.77;;;8.80;;
74900;SDS011;63461;51.416;6.758;2024-01-06T06:15:01;18.30;;;8.60;;
74900;SDS011;63461;51.416;6.758;2024-01-06T06:17:29;20.10;;;9.07;;
74900;SDS011;63461;51.416;6.758;2024-01-06T06:19:55;19.30;;;8.97;;
74900;SDS011;63461;51.416;6.758;2024-01-06T06:22:22;18.50;;;8.80;;
74900;SDS011;63461;51.416;6.758;2024-01-06T06:24:48;21.00;;;9.10;;
74900;SDS011;63461;51.416;6.758;2024-01-06T06:27:14;17.73;;;8.20;;
74900;SDS011;63461;51.416;6.758;2024-01-06T06:29:40;19.90;;;8.67;;
74900;SDS011;63461;51.416;6.758;2024-01-06T06:32:06;20.27;;;9.53;;
74900;SDS011;63461;51.416;6.758;2024-01-06T06:34:31;19.13;;;8.40;;
74900;SDS011;63461;51.416;6.758;2024-01-06T06:37:00;21.80;;;9.53;;
74900;SDS011;63461;51.416;6.758;2024-01-06T06:39:25;18.23;;;7.30;;
74900;SDS011;63461;51.416;6.758;2024-01-06T06:41:52;24.47;;;10.30;;
74900;SDS011;63461;51.416;6.758;2024-01-06T06:44:18;22.70;;;9.70;;
74900;SDS011;63461;51.416;6.758;2024-01-06T06:46:44;20.20;;;9.07;;
74900;SDS011;63461;51.416;6.758;2024-01-06T06:49:12;17.67;;;8.17;;
74900;SDS011;63461;51.416;6.758;2024-01-06T06:51:38;22.33;;;8.87;;
74900;SDS011;63461;51.416;6.758;2024-01-06T06:54:11;17.07;;;8.13;;
74900;SDS011;63461;51.416;6.758;2024-01-06T06:56:38;15.43;;;7.57;;
74900;SDS011;63461;51.416;6.758;2024-01-06T06:59:03;19.30;;;8.17;;
74900;SDS011;63461;51.416;6.758;2024-01-06T07:01:31;20.37;;;8.53;;
74900;SDS011;63461;51.416;6.758;2024-01-06T07:03:57;22.23;;;9.17;;
74900;SDS011;63461;51.416;6.758;2024-01-06T07:06:23;23.13;;;10.13;;
74900;SDS011;63461;51.416;6.758;2024-01-06T07:08:49;25.50;;;10.00;;
74900;SDS011;63461;51.416;6.758;2024-01-06T07:11:15;25.43;;;10.03;;
74900;SDS011;63461;51.416;6.758;2024-01-06T07:13:43;23.77;;;9.00;;
74900;SDS011;63461;51.416;6.758;2024-01-06T07:16:09;22.63;;;9.43;;
74900;SDS011;63461;51.416;6.758;2024-01-06T07:18:37;20.93;;;9.40;;
74900;SDS011;63461;51.416;6.758;2024-01-06T07:21:06;24.07;;;9.10;;
74900;SDS011;63461;51.416;6.758;2024-01-06T07:23:32;22.83;;;8.83;;
74900;SDS011;63461;51.416;6.758;2024-01-06T07:25:58;18.53;;;8.27;;
74900;SDS011;63461;51.416;6.758;2024-01-06T07:28:24;20.10;;;8.17;;
74900;SDS011;63461;51.416;6.758;2024-01-06T07:30:50;20.07;;;8.83;;
74900;SDS011;63461;51.416;6.758;2024-01-06T07:33:16;20.83;;;8.70;;
74900;SDS011;63461;51.416;6.758;2024-01-06T07:35:41;20.27;;;8.60;;
74900;SDS011;63461;51.416;6.758;2024-01-06T07:38:09;21.23;;;8.87;;
74900;SDS011;63461;51.416;6.758;2024-01-06T07:40:38;23.00;;;9.23;;
74900;SDS011;63461;51.416;6.758;2024-01-06T07:43:06;30.13;;;11.70;;
74900;SDS011;63461;51.416;6.758;2024-01-06T07:45:32;28.93;;;11.27;;
74900;SDS011;63461;51.416;6.758;2024-01-06T07:47:58;29.43;;;9.97;;
74900;SDS011;63461;51.416;6.758;2024-01-06T07:50:24;21.60;;;9.10;;
74900;SDS011;63461;51.416;6.758;2024-01-06T07:52:50;23.63;;;9.20;;
74900;SDS011;63461;51.416;6.758;2024-01-06T07:55:17;23.03;;;9.10;;
74900;SDS011;63461;51.416;6.758;2024-01-06T07:57:43;20.97;;;8.87;;
74900;SDS011;63461;51.416;6.758;2024-01-06T08:00:09;19.83;;;8.50;;
74900;SDS011;63461;51.416;6.758;2024-01-06T08:02:40;25.67;;;9.73;;
74900;SDS011;63461;51.416;6.758;2024-01-06T08:05:06;21.27;;;9.53;;
74900;SDS011;63461;51.416;6.758;2024-01-06T08:07:32;22.83;;;9.90;;
74900;SDS011;63461;51.416;6.758;2024-01-06T08:09:58;22.53;;;9.50;;
74900;SDS011;63461;51.416;6.758;2024-01-06T08:12:24;25.27;;;9.80;;
74900;SDS011;63461;51.416;6.758;2024-01-06T08:14:50;27.67;;;10.67;;
74900;SDS011;63461;51.416;6.758;2024-01-06T08:17:16;25.67;;;9.37;;
74900;SDS011;63461;51.416;6.758;2024-01-06T08:19:42;26.63;;;11.03;;
74900;SDS011;63461;51.416;6.758;2024-01-06T08:22:08;24.33;;;10.57;;
74900;SDS011;63461;51.416;6.758;2024-01-06T08:24:37;27.57;;;11.37;;
74900;SDS011;63461;51.416;6.758;2024-01-06T08:27:03;27.17;;;11.57;;
74900;SDS011;63461;51.416;6.758;2024-01-06T08:29:29;29.07;;;10.90;;
74900;SDS011;63461;51.416;6.758;2024-01-06T08:31:55;25.47;;;10.70;;
74900;SDS011;63461;51.416;6.758;2024-01-06T08:34:21;28.87;;;12.20;;
74900;SDS011;63461;51.416;6.758;2024-01-06T08:36:47;30.10;;;12.27;;
74900;SDS011;63461;51.416;6.758;2024-01-06T08:39:13;35.00;;;12.57;;
74900;SDS011;63461;51.416;6.758;2024-01-06T08:41:41;31.10;;;12.47;;
74900;SDS011;63461;51.416;6.758;2024-01-06T08:44:07;31.03;;;12.60;;
74900;SDS011;63461;51.416;6.758;2024-01-06T08:46:33;32.33;;;13.67;;
74900;SDS011;63461;51.416;6.758;2024-01-06T08:48:59;33.50;;;13.73;;
74900;SDS011;63461;51.416;6.758;2024-01-06T08:51:25;34.63;;;13.37;;
74900;SDS011;63461;51.416;6.758;2024-01-06T08:53:51;38.30;;;14.20;;
74900;SDS011;63461;51.416;6.758;2024-01-06T08:56:18;33.87;;;14.27;;
74900;SDS011;63461;51.416;6.758;2024-01-06T08:58:45;37.93;;;14.13;;
74900;SDS011;63461;51.416;6.758;2024-01-06T09:01:12;38.83;;;13.93;;
74900;SDS011;63461;51.416;6.758;2024-01-06T09:03:38;39.23;;;14.50;;
74900;SDS011;63461;51.416;6.758;2024-01-06T09:06:04;43.73;;;15.00;;
74900;SDS011;63461;51.416;6.758;2024-01-06T09:08:30;44.53;;;16.07;;
74900;SDS011;63461;51.416;6.758;2024-01-06T09:10:56;42.60;;;15.73;;
74900;SDS011;63461;51.416;6.758;2024-01-06T09:13:23;38.77;;;16.10;;
74900;SDS011;63461;51.416;6.758;2024-01-06T09:15:50;42.83;;;15.87;;
74900;SDS011;63461;51.416;6.758;2024-01-06T09:18:16;42.83;;;16.00;;
74900;SDS011;63461;51.416;6.758;2024-01-06T09:20:42;40.67;;;15.07;;
74900;SDS011;63461;51.416;6.758;2024-01-06T09:23:08;34.33;;;14.17;;
74900;SDS011;63461;51.416;6.758;2024-01-06T09:25:35;34.77;;;13.30;;
74900;SDS011;63461;51.416;6.758;2024-01-06T09:28:01;40.77;;;14.13;;
74900;SDS011;63461;51.416;6.758;2024-01-06T09:30:27;35.87;;;13.13;;
74900;SDS011;63461;51.416;6.758;2024-01-06T09:32:53;36.23;;;12.53;;
74900;SDS011;63461;51.416;6.758;2024-01-06T09:35:19;33.70;;;13.40;;
74900;SDS011;63461;51.416;6.758;2024-01-06T09:37:48;33.77;;;13.33;;
74900;SDS011;63461;51.416;6.758;2024-01-06T09:40:14;30.37;;;11.53;;
74900;SDS011;63461;51.416;6.758;2024-01-06T09:42:48;27.23;;;10.77;;
74900;SDS011;63461;51.416;6.758;2024-01-06T09:45:15;29.30;;;10.53;;
74900;SDS011;63461;51.416;6.758;2024-01-06T09:47:41;30.83;;;11.83;;
74900;SDS011;63461;51.416;6.758;2024-01-06T09:50:08;28.47;;;10.57;;
74900;SDS011;63461;51.416;6.758;2024-01-06T09:52:40;32.30;;;12.47;;
74900;SDS011;63461;51.416;6.758;2024-01-06T09:55:08;29.33;;;10.57;;
74900;SDS011;63461;51.416;6.758;2024-01-06T09:57:36;24.87;;;9.83;;
74900;SDS011;63461;51.416;6.758;2024-01-06T10:00:02;24.10;;;9.23;;
74900;SDS011;63461;51.416;6.758;2024-01-06T10:02:37;20.23;;;9.13;;
74900;SDS011;63461;51.416;6.758;2024-01-06T10:05:02;22.93;;;8.87;;
74900;SDS011;63461;51.416;6.758;2024-01-06T10:07:29;23.73;;;9.07;;
74900;SDS011;63461;51.416;6.758;2024-01-06T10:09:55;22.13;;;8.93;;
74900;SDS011;63461;51.416;6.758;2024-01-06T10:12:25;19.47;;;7.90;;
74900;SDS011;63461;51.416;6.758;2024-01-06T10:14:51;20.30;;;7.90;;
74900;SDS011;63461;51.416;6.758;2024-01-06T10:17:20;18.97;;;7.90;;
74900;SDS011;63461;51.416;6.758;2024-01-06T10:19:46;16.67;;;7.70;;
74900;SDS011;63461;51.416;6.758;2024-01-06T10:22:18;20.33;;;7.87;;
74900;SDS011;63461;51.416;6.758;2024-01-06T10:24:43;17.97;;;7.57;;
74900;SDS011;63461;51.416;6.758;2024-01-06T10:27:09;18.00;;;7.80;;
74900;SDS011;63461;51.416;6.758;2024-01-06T10:29:35;15.17;;;6.00;;
74900;SDS011;63461;51.416;6.758;2024-01-06T10:32:01;19.67;;;7.50;;
74900;SDS011;63461;51.416;6.758;2024-01-06T10:34:27;19.30;;;8.77;;
74900;SDS011;63461;51.416;6.758;2024-01-06T10:36:54;18.07;;;7.43;;
74900;SDS011;63461;51.416;6.758;2024-01-06T10:39:20;19.63;;;8.27;;
74900;SDS011;63461;51.416;6.758;2024-01-06T10:41:49;22.70;;;8.73;;
74900;SDS011;63461;51.416;6.758;2024-01-06T10:44:17;24.80;;;8.50;;
74900;SDS011;63461;51.416;6.758;2024-01-06T10:46:44;23.13;;;9.17;;
74900;SDS011;63461;51.416;6.758;2024-01-06T10:49:10;21.33;;;9.33;;
74900;SDS011;63461;51.416;6.758;2024-01-06T10:51:37;26.87;;;9.50;;
74900;SDS011;63461;51.416;6.758;2024-01-06T10:54:04;25.70;;;10.30;;
74900;SDS011;63461;51.416;6.758;2024-01-06T10:56:31;28.20;;;11.10;;
74900;SDS011;63461;51.416;6.758;2024-01-06T10:59:02;26.93;;;11.07;;
74900;SDS011;63461;51.416;6.758;2024-01-06T11:01:28;26.13;;;10.90;;
74900;SDS011;63461;51.416;6.758;2024-01-06T11:03:55;29.27;;;12.30;;
74900;SDS011;63461;51.416;6.758;2024-01-06T11:06:21;32.77;;;12.70;;
74900;SDS011;63461;51.416;6.758;2024-01-06T11:09:03;30.93;;;12.53;;
74900;SDS011;63461;51.416;6.758;2024-01-06T11:11:38;36.70;;;13.27;;
74900;SDS011;63461;51.416;6.758;2024-01-06T11:14:17;31.83;;;13.83;;
74900;SDS011;63461;51.416;6.758;2024-01-06T11:16:45;37.57;;;13.80;;
74900;SDS011;63461;51.416;6.758;2024-01-06T11:22:18;37.30;;;13.07;;
74900;SDS011;63461;51.416;6.758;2024-01-06T11:24:55;37.73;;;14.07;;
74900;SDS011;63461;51.416;6.758;2024-01-06T11:27:28;34.90;;;13.57;;
74900;SDS011;63461;51.416;6.758;2024-01-06T11:29:57;35.47;;;12.87;;
74900;SDS011;63461;51.416;6.758;2024-01-06T11:32:27;35.03;;;12.53;;
74900;SDS011;63461;51.416;6.758;2024-01-06T11:34:55;38.67;;;14.13;;
74900;SDS011;63461;51.416;6.758;2024-01-06T11:37:24;38.67;;;12.87;;
74900;SDS011;63461;51.416;6.758;2024-01-06T11:39:51;36.23;;;13.87;;
74900;SDS011;63461;51.416;6.758;2024-01-06T11:42:18;35.33;;;13.30;;
74900;SDS011;63461;51.416;6.758;2024-01-06T11:44:44;37.70;;;14.27;;
74900;SDS011;63461;51.416;6.758;2024-01-06T11:47:14;37.33;;;14.33;;
74900;SDS011;63461;51.416;6.758;2024-01-06T11:49:44;37.40;;;13.60;;
74900;SDS011;63461;51.416;6.758;2024-01-06T11:52:11;35.80;;;13.63;;
74900;SDS011;63461;51.416;6.758;2024-01-06T11:54:37;30.93;;;12.37;;
74900;SDS011;63461;51.416;6.758;2024-01-06T11:57:06;33.40;;;12.10;;
74900;SDS011;63461;51.416;6.758;2024-01-06T11:59:32;33.37;;;12.87;;
74900;SDS011;63461;51.416;6.758;2024-01-06T12:01:58;31.30;;;11.30;;
74900;SDS011;63461;51.416;6.758;2024-01-06T12:04:24;32.23;;;11.53;;
74900;SDS011;63461;51.416;6.758;2024-01-06T12:06:52;33.43;;;12.77;;
74900;SDS011;63461;51.416;6.758;2024-01-06T12:09:19;30.93;;;12.17;;
74900;SDS011;63461;51.416;6.758;2024-01-06T12:11:45;30.63;;;12.00;;
74900;SDS011;63461;51.416;6.758;2024-01-06T12:14:12;38.17;;;12.83;;
74900;SDS011;63461;51.416;6.758;2024-01-06T12:16:38;29.87;;;12.33;;
74900;SDS011;63461;51.416;6.758;2024-01-06T12:19:04;30.67;;;13.20;;
74900;SDS011;63461;51.416;6.758;2024-01-06T12:21:30;32.47;;;12.67;;
74900;SDS011;63461;51.416;6.758;2024-01-06T12:24:17;26.27;;;11.50;;
74900;SDS011;63461;51.416;6.758;2024-01-06T12:26:45;33.23;;;12.70;;
74900;SDS011;63461;51.416;6.758;2024-01-06T12:29:14;33.60;;;11.90;;
74900;SDS011;63461;51.416;6.758;2024-01-06T12:31:41;30.77;;;12.67;;
74900;SDS011;63461;51.416;6.758;2024-01-06T12:34:09;28.67;;;11.47;;
74900;SDS011;63461;51.416;6.758;2024-01-06T12:36:36;35.10;;;13.10;;
74900;SDS011;63461;51.416;6.758;2024-01-06T12:39:03;26.97;;;10.90;;
74900;SDS011;63461;51.416;6.758;2024-01-06T12:41:30;28.97;;;10.50;;
74900;SDS011;63461;51.416;6.758;2024-01-06T12:43:59;25.83;;;9.63;;
74900;SDS011;63461;51.416;6.758;2024-01-06T12:46:26;23.67;;;8.13;;
74900;SDS011;63461;51.416;6.758;2024-01-06T12:48:52;20.43;;;8.37;;
74900;SDS011;63461;51.416;6.758;2024-01-06T12:51:18;19.87;;;8.50;;
74900;SDS011;63461;51.416;6.758;2024-01-06T12:53:43;28.53;;;11.20;;
74900;SDS011;63461;51.416;6.758;2024-01-06T12:56:09;30.77;;;12.30;;
74900;SDS011;63461;51.416;6.758;2024-01-06T12:58:35;29.87;;;12.00;;
74900;SDS011;63461;51.416;6.758;2024-01-06T13:01:01;31.77;;;13.13;;
74900;SDS011;63461;51.416;6.758;2024-01-06T13:03:28;35.73;;;14.17;;
74900;SDS011;63461;51.416;6.758;2024-01-06T13:05:54;37.53;;;13.87;;
74900;SDS011;63461;51.416;6.758;2024-01-06T13:08:20;36.23;;;13.70;;
74900;SDS011;63461;51.416;6.758;2024-01-06T13:10:46;31.40;;;13.60;;
74900;SDS011;63461;51.416;6.758;2024-01-06T13:13:12;35.63;;;13.20;;
74900;SDS011;63461;51.416;6.758;2024-01-06T13:15:37;31.70;;;11.80;;
74900;SDS011;63461;51.416;6.758;2024-01-06T13:18:04;29.57;;;13.13;;
74900;SDS011;63461;51.416;6.758;2024-01-06T13:20:30;34.67;;;12.90;;
74900;SDS011;63461;51.416;6.758;2024-01-06T13:22:55;31.63;;;12.03;;
74900;SDS011;63461;51.416;6.758;2024-01-06T13:25:21;29.87;;;11.97;;
74900;SDS011;63461;51.416;6.758;2024-01-06T13:27:47;29.30;;;11.60;;
74900;SDS011;63461;51.416;6.758;2024-01-06T13:30:13;28.43;;;11.67;;
74900;SDS011;63461;51.416;6.758;2024-01-06T13:32:40;28.50;;;12.63;;
74900;SDS011;63461;51.416;6.758;2024-01-06T13:35:06;29.60;;;11.07;;
74900;SDS011;63461;51.416;6.758;2024-01-06T13:37:32;23.53;;;10.07;;
74900;SDS011;63461;51.416;6.758;2024-01-06T13:39:58;24.63;;;10.20;;
74900;SDS011;63461;51.416;6.758;2024-01-06T13:42:24;26.53;;;10.77;;
74900;SDS011;63461;51.416;6.758;2024-01-06T13:44:50;23.77;;;10.03;;
74900;SDS011;63461;51.416;6.758;2024-01-06T13:47:15;35.93;;;14.37;;
74900;SDS011;63461;51.416;6.758;2024-01-06T13:49:41;40.17;;;13.80;;
74900;SDS011;63461;51.416;6.758;2024-01-06T13:52:07;34.90;;;13.50;;
74900;SDS011;63461;51.416;6.758;2024-01-06T13:54:33;27.67;;;11.87;;
74900;SDS011;63461;51.416;6.758;2024-01-06T13:57:00;30.27;;;11.50;;
74900;SDS011;63461;51.416;6.758;2024-01-06T13:59:26;28.77;;;11.77;;
74900;SDS011;63461;51.416;6.758;2024-01-06T14:01:52;26.57;;;11.80;;
74900;SDS011;63461;51.416;6.758;2024-01-06T14:04:18;29.57;;;11.57;;
74900;SDS011;63461;51.416;6.758;2024-01-06T14:06:44;31.23;;;12.17;;
74900;SDS011;63461;51.416;6.758;2024-01-06T14:09:13;29.70;;;11.67;;
74900;SDS011;63461;51.416;6.758;2024-01-06T14:11:38;33.13;;;12.37;;
74900;SDS011;63461;51.416;6.758;2024-01-06T14:14:04;36.33;;;12.23;;
74900;SDS011;63461;51.416;6.758;2024-01-06T14:16:31;31.00;;;12.13;;
74900;SDS011;63461;51.416;6.758;2024-01-06T14:18:57;29.57;;;12.27;;
74900;SDS011;63461;51.416;6.758;2024-01-06T14:21:23;29.67;;;11.13;;
74900;SDS011;63461;51.416;6.758;2024-01-06T14:23:49;26.93;;;11.63;;
74900;SDS011;63461;51.416;6.758;2024-01-06T14:26:15;25.70;;;11.60;;